Date,TemperatureHighF,TemperatureAvgF,TemperatureLowF,DewpointHighF,DewpointAvgF,DewpointLowF,HumidityHigh,HumidityAvg,HumidityLow,PressureMaxIn,PressureMinIn,WindSpeedMaxMPH,WindSpeedAvgMPH,GustSpeedMaxMPH,PrecipitationSumIn
2013-8-1,69,54,47,-100,-100,-100,0,0,100,0.00,40.00,0,-999,0,0.01
2013-8-2,68,58,47,-100,-100,-100,0,0,100,0.00,40.00,0,-999,0,0.01
2013-8-3,69,58,49,-100,-100,-100,0,0,100,0.00,40.00,0,-999,0,0.00
2013-8-4,68,58,50,-100,-100,-100,0,0,100,0.00,40.00,0,-999,0,0.01
2013-8-5,66,55,49,-100,-100,-100,0,0,100,0.00,40.00,0,-999,0,0.00
2013-8-6,69,62,50,-100,-100,-100,0,0,100,0.00,40.00,0,-999,0,0.00
2013-8-7,64,54,43,-100,-100,-100,0,0,100,0.00,40.00,0,-999,0,0.01
2013-8-8,58,49,42,-100,-100,-100,0,0,100,0.00,40.00,0,-999,0,0.01
2013-8-9,57,46,38,-100,-100,-100,0,0,100,0.00,40.00,0,-999,0,0.01
2013-8-10,65,52,40,-100,-100,-100,0,0,100,0.00,40.00,0,-999,0,0.00
2013-8-11,61,51,45,-100,-100,-100,0,0,100,0.00,40.00,0,-999,0,0.00
2013-8-12,59,49,41,-100,-100,-100,0,0,100,0.00,40.00,0,-999,0,0.01
2013-8-13,55,45,41,-100,-100,-100,0,0,100,0.00,40.00,0,-999,0,0.02
2013-8-14,61,48,36,-100,-100,-100,0,0,100,0.00,40.00,0,-999,0,0.01
2013-8-15,67,55,44,-100,-100,-100,0,0,100,0.00,40.00,0,-999,0,0.00
2013-8-16,68,57,44,-100,-100,-100,0,0,100,0.00,40.00,0,-999,0,0.01
2013-8-17,72,61,47,-100,-100,-100,0,0,100,0.00,40.00,0,-999,0,0.00
2013-8-18,70,60,52,-100,-100,-100,0,0,100,0.00,40.00,0,-999,0,0.01
2013-8-19,71,59,48,-100,-100,-100,0,0,100,0.00,40.00,0,-999,0,0.00
2013-8-20,71,60,51,-100,-100,-100,0,0,100,0.00,40.00,0,-999,0,0.00
2013-8-21,66,57,49,-100,-100,-100,0,0,100,0.00,40.00,0,-999,0,0.01
2013-8-22,63,54,45,-100,-100,-100,0,0,100,0.00,40.00,0,-999,0,0.01
2013-8-23,68,56,47,-100,-100,-100,0,0,100,0.00,40.00,0,-999,0,0.01
2013-8-24,61,52,44,-100,-100,-100,0,0,100,0.00,40.00,0,-999,0,0.01
2013-8-25,62,53,47,-100,-100,-100,0,0,100,0.00,40.00,0,-999,0,0.01
2013-8-26,62,54,50,-100,-100,-100,0,0,100,0.00,40.00,0,-999,0,0.00
2013-8-27,67,56,49,-100,-100,-100,0,0,100,0.00,40.00,0,-999,0,0.00
2013-8-28,70,62,48,-100,-100,-100,0,0,100,0.00,40.00,0,-999,0,0.00
2013-8-29,69,57,46,-100,-100,-100,0,0,100,0.00,40.00,0,-999,0,0.01
2013-8-30,70,60,49,-100,-100,-100,0,0,100,0.00,40.00,0,-999,0,0.01
2013-8-31,68,59,49,-100,-100,-100,0,0,100,0.00,40.00,0,-999,0,0.00